Time;durP1;ratioP1;P1;durP2;ratioP2;P2;SDS_P1;SDS_P2;PMS_P1;PMS_P2;Temp;Humidity;BMP_temperature;BMP_pressure;BME280_temperature;BME280_humidity;BME280_pressure;Samples;Min_cycle;Max_cycle;Signal;HPM_P1;HPM_P2
2023/08/22 00:00:14;;;;;;;7.70;7.20;;;;;;;20.91;100.00;153960.31;10588908;28;20044;-77
2023/08/22 00:05:17;;;;;;;7.78;7.18;;;;;;;21.06;100.00;153998.00;10570713;28;20044;-77
2023/08/22 00:10:19;;;;;;;8.60;8.00;;;;;;;21.40;100.00;154085.22;10590875;28;20509;-77
2023/08/22 00:15:21;;;;;;;7.93;7.40;;;;;;;21.10;100.00;154009.72;10592625;28;20059;-78
2023/08/22 00:20:23;;;;;;;8.30;7.70;;;;;;;21.01;100.00;153985.00;10590879;28;20044;-78
2023/08/22 00:25:25;;;;;;;8.60;7.93;;;;;;;20.90;100.00;153959.00;10588603;28;20376;-77
2023/08/22 00:30:27;;;;;;;8.95;8.35;;;;;;;20.90;100.00;153957.72;10590732;28;20079;-77
2023/08/22 00:35:28;;;;;;;8.20;7.70;;;;;;;20.92;100.00;153964.19;10593492;28;20036;-78
2023/08/22 00:40:30;;;;;;;8.15;7.43;;;;;;;20.87;100.00;153949.91;10575141;28;20093;-77
2023/08/22 00:45:32;;;;;;;7.72;7.15;;;;;;;20.97;100.00;153974.59;10575972;28;20048;-77
2023/08/22 00:50:34;;;;;;;6.93;6.43;;;;;;;21.02;99.28;153987.59;10594090;28;20104;-77
2023/08/22 00:55:36;;;;;;;7.35;6.75;;;;;;;20.91;100.00;153961.59;10572773;28;20046;-78
2023/08/22 01:00:38;;;;;;;6.70;6.30;;;;;;;20.88;100.00;153952.50;10594812;28;20044;-78
2023/08/22 01:05:46;;;;;;;7.07;6.40;;;;;;;20.82;100.00;153938.19;10576499;28;20040;-78
2023/08/22 01:10:53;;;;;;;6.25;5.75;;;;;;;20.80;99.81;153931.69;10573885;28;20167;-79
2023/08/22 01:15:56;;;;;;;7.68;6.93;;;;;;;21.02;100.00;153988.91;10568406;28;20059;-74
2023/08/22 01:21:04;;;;;;;7.55;6.95;;;;;;;21.05;100.00;153996.72;10585845;28;20080;-74
2023/08/22 01:26:07;;;;;;;7.20;6.60;;;;;;;20.82;100.00;153938.19;10550489;28;20040;-74
2023/08/22 01:31:20;;;;;;;8.10;7.50;;;;;;;20.89;100.00;153955.06;10585410;28;20039;-75
2023/08/22 01:36:25;;;;;;;8.43;7.63;;;;;;;20.57;100.00;153873.16;10566303;28;20052;-75
2023/08/22 01:41:26;;;;;;;8.40;7.80;;;;;;;20.49;100.00;153852.34;10565871;28;20075;-73
2023/08/22 01:46:29;;;;;;;8.23;7.45;;;;;;;20.74;100.00;153917.38;10567605;28;20110;-74
2023/08/22 01:51:31;;;;;;;10.63;8.20;;;;;;;20.42;100.00;153836.72;10566372;28;20194;-74
2023/08/22 01:56:33;;;;;;;9.38;8.57;;;;;;;20.65;100.00;153895.28;10566837;28;20046;-74
2023/08/22 02:01:35;;;;;;;9.25;8.07;;;;;;;20.59;100.00;153879.69;10583639;28;20088;-74
2023/08/22 02:06:37;;;;;;;8.75;7.80;;;;;;;20.37;100.00;153823.72;10548547;28;20044;-75
2023/08/22 02:11:39;;;;;;;8.95;8.20;;;;;;;20.21;100.00;153780.81;10583822;28;20043;-78
2023/08/22 02:16:41;;;;;;;9.10;8.40;;;;;;;20.26;100.00;153795.09;10570014;28;20390;-76
2023/08/22 02:21:43;;;;;;;9.50;8.68;;;;;;;20.26;100.00;153793.81;10564674;28;20048;-78
2023/08/22 02:26:48;;;;;;;9.37;8.63;;;;;;;20.20;100.00;153778.22;10584203;28;20393;-77
2023/08/22 02:31:50;;;;;;;8.55;7.95;;;;;;;20.22;100.00;153783.41;10583137;28;20039;-78
2023/08/22 02:36:52;;;;;;;9.48;8.68;;;;;;;20.24;100.00;153789.91;10582417;28;20416;-77
2023/08/22 02:41:53;;;;;;;8.68;8.00;;;;;;;20.15;100.00;153766.53;10565660;28;20146;-78
2023/08/22 02:46:56;;;;;;;9.75;9.05;;;;;;;20.06;100.00;153743.13;10567807;28;20044;-79
2023/08/22 02:51:58;;;;;;;9.13;8.55;;;;;;;20.10;100.00;153753.53;10567754;28;20093;-78
2023/08/22 02:57:00;;;;;;;10.18;9.27;;;;;;;20.19;100.00;153775.59;10585020;28;20063;-79
2023/08/22 03:02:03;;;;;;;10.32;9.73;;;;;;;20.18;100.00;153774.28;10567495;28;20096;-79
2023/08/22 03:07:08;;;;;;;10.50;9.68;;;;;;;20.10;100.00;153753.53;10551820;28;20123;-78
2023/08/22 03:12:11;;;;;;;9.45;8.75;;;;;;;20.03;100.00;153736.59;10567277;28;20067;-78
2023/08/22 03:17:12;;;;;;;9.75;9.15;;;;;;;20.03;100.00;153736.59;10586735;28;20039;-78
2023/08/22 03:22:14;;;;;;;9.30;8.70;;;;;;;19.96;100.00;153717.09;10570182;28;20082;-78
2023/08/22 03:27:16;;;;;;;10.23;9.63;;;;;;;20.16;100.00;153769.13;10570111;28;20078;-78
2023/08/22 03:32:18;;;;;;;11.07;9.95;;;;;;;20.15;100.00;153767.81;10587996;28;20108;-78
2023/08/22 03:37:20;;;;;;;9.90;9.15;;;;;;;20.10;100.00;153754.81;10570163;28;20121;-78
2023/08/22 03:42:22;;;;;;;10.80;10.10;;;;;;;20.25;100.00;153791.22;10572498;28;20577;-79
2023/08/22 03:47:27;;;;;;;10.68;9.98;;;;;;;20.03;100.00;153735.31;10573289;28;20069;-79
2023/08/22 03:52:29;;;;;;;11.55;10.73;;;;;;;20.07;100.00;153747.00;10573342;28;20044;-79
2023/08/22 03:57:31;;;;;;;10.77;10.02;;;;;;;20.06;100.00;153744.41;10572985;28;20450;-79
2023/08/22 04:02:34;;;;;;;11.27;10.32;;;;;;;20.14;100.00;153765.22;10594232;28;20069;-79
2023/08/22 04:07:36;;;;;;;11.05;10.25;;;;;;;20.12;100.00;153760.00;10581952;28;20048;-78
2023/08/22 04:12:39;;;;;;;12.93;11.93;;;;;;;20.38;100.00;153825.03;10600566;28;20044;-79
2023/08/22 04:17:41;;;;;;;11.70;10.90;;;;;;;20.46;100.00;153844.53;10600585;28;20111;-78
2023/08/22 04:22:44;;;;;;;13.32;12.07;;;;;;;20.31;100.00;153808.09;10583532;28;20146;-79
2023/08/22 04:27:47;;;;;;;13.45;12.35;;;;;;;20.23;100.00;153786.00;10583078;28;20113;-79
2023/08/22 04:32:50;;;;;;;12.60;11.80;;;;;;;20.24;100.00;153788.63;10599584;28;20439;-78
2023/08/22 04:37:52;;;;;;;12.48;11.57;;;;;;;20.57;100.00;153874.47;10593816;28;20048;-78
2023/08/22 04:42:55;;;;;;;11.80;11.00;;;;;;;20.33;100.00;153812.03;10557472;28;20067;-79
2023/08/22 04:47:57;;;;;;;13.07;12.07;;;;;;;20.24;100.00;153789.91;10575269;28;20036;-78
2023/08/22 04:52:58;;;;;;;12.75;11.80;;;;;;;20.27;100.00;153797.69;10575702;28;20054;-78
2023/08/22 04:58:00;;;;;;;11.63;10.82;;;;;;;20.54;100.00;153865.34;10555510;28;20051;-77
2023/08/22 05:03:03;;;;;;;11.70;10.93;;;;;;;20.41;100.00;153834.13;10589109;28;20035;-78
2023/08/22 05:08:05;;;;;;;11.98;11.18;;;;;;;20.44;100.00;153840.59;10554740;28;20070;-78
2023/08/22 05:13:07;;;;;;;11.07;10.27;;;;;;;20.56;100.00;153871.88;10589933;28;20386;-77
2023/08/22 05:18:09;;;;;;;12.07;11.15;;;;;;;20.80;100.00;153932.97;10588252;28;20114;-78
2023/08/22 05:23:11;;;;;;;12.40;11.50;;;;;;;21.17;100.00;154027.94;10589172;28;20497;-78
2023/08/22 05:28:14;;;;;;;11.82;11.07;;;;;;;21.51;100.00;154113.81;10590887;28;20040;-79
2023/08/22 05:33:16;;;;;;;11.55;10.80;;;;;;;21.63;100.00;154145.06;10588844;28;20044;-79
2023/08/22 05:38:21;;;;;;;11.70;10.70;;;;;;;21.76;99.07;154176.31;10553013;28;20063;-77
2023/08/22 05:43:24;;;;;;;9.52;8.73;;;;;;;21.78;96.17;154181.50;10587608;28;20493;-78
2023/08/22 05:48:27;;;;;;;9.88;9.07;;;;;;;21.76;97.02;154176.31;10552757;28;20043;-77
2023/08/22 05:53:30;;;;;;;9.70;9.10;;;;;;;21.89;97.66;154211.44;10589104;28;20054;-76
2023/08/22 05:58:34;;;;;;;11.20;10.50;;;;;;;21.71;95.77;154164.59;10593870;28;20412;-77
2023/08/22 06:03:38;;;;;;;11.20;10.40;;;;;;;21.72;96.67;154167.19;10590644;28;20062;-77
2023/08/22 06:08:40;;;;;;;9.85;9.05;;;;;;;22.51;88.88;154367.72;10570363;28;20036;-78
2023/08/22 06:13:42;;;;;;;8.43;7.82;;;;;;;22.90;87.84;154468.03;10586370;28;20040;-76
2023/08/22 06:18:44;;;;;;;9.18;8.57;;;;;;;23.28;83.55;154564.38;10567661;28;20086;-78
2023/08/22 06:23:46;;;;;;;8.77;8.07;;;;;;;23.84;79.47;154709.06;10570965;28;20047;-78
2023/08/22 06:28:48;;;;;;;8.80;8.18;;;;;;;24.12;78.22;154779.41;10591099;28;20039;-77
2023/08/22 06:33:53;;;;;;;9.30;8.50;;;;;;;24.27;78.89;154818.53;10568499;28;20043;-77
2023/08/22 06:38:56;;;;;;;8.33;7.70;;;;;;;24.60;76.67;154903.28;10566806;28;20150;-78
2023/08/22 06:44:00;;;;;;;8.52;7.93;;;;;;;24.73;76.58;154935.88;10567105;28;20047;-78
2023/08/22 06:49:03;;;;;;;7.60;7.07;;;;;;;24.93;74.86;154986.75;10571936;28;20036;-81
2023/08/22 06:54:05;;;;;;;7.78;7.28;;;;;;;24.82;75.38;154959.34;10587961;28;20036;-78
2023/08/22 06:59:07;;;;;;;7.40;6.70;;;;;;;25.03;74.83;155012.81;10575013;28;20542;-78
2023/08/22 07:04:09;;;;;;;7.53;7.03;;;;;;;25.28;73.94;155075.44;10575568;28;20130;-77
2023/08/22 07:09:18;;;;;;;7.68;7.18;;;;;;;25.38;73.43;155101.56;10592294;28;20430;-77
2023/08/22 07:14:20;;;;;;;7.85;7.32;;;;;;;25.57;70.77;155151.09;10588479;28;20047;-77
2023/08/22 07:19:22;;;;;;;7.40;6.90;;;;;;;25.38;75.50;155102.84;10587501;28;20047;-78
2023/08/22 07:24:41;;;;;;;8.27;7.68;;;;;;;25.39;73.01;155104.16;10586527;28;20089;-78
2023/08/22 07:29:43;;;;;;;8.05;7.35;;;;;;;25.78;70.58;155204.66;10565677;28;20126;-77
2023/08/22 07:34:45;;;;;;;7.53;7.03;;;;;;;25.67;71.17;155177.19;10584462;28;20051;-77
2023/08/22 07:39:47;;;;;;;8.57;7.72;;;;;;;25.67;71.69;155177.19;10588621;28;20106;-77
2023/08/22 07:44:49;;;;;;;7.47;6.88;;;;;;;26.01;71.76;155262.06;10574305;28;20048;-76
2023/08/22 07:49:51;;;;;;;8.27;7.47;;;;;;;25.75;70.71;155196.75;10592975;28;20108;-77
2023/08/22 07:54:53;;;;;;;7.85;7.25;;;;;;;26.16;70.33;155301.19;10591537;28;20044;-77
2023/08/22 07:59:55;;;;;;;8.15;7.45;;;;;;;26.11;69.63;155288.13;10591556;28;20385;-76
2023/08/22 08:04:57;;;;;;;7.38;6.72;;;;;;;26.11;69.75;155288.13;10589966;28;20047;-76
2023/08/22 08:09:58;;;;;;;7.18;6.63;;;;;;;26.20;71.16;155311.63;10590783;28;20035;-77
2023/08/22 08:15:00;;;;;;;9.02;8.00;;;;;;;26.12;70.74;155292.09;10571502;28;20052;-76
2023/08/22 08:20:04;;;;;;;7.20;6.60;;;;;;;26.41;69.90;155365.13;10588740;28;20148;-76
2023/08/22 08:25:06;;;;;;;7.93;7.28;;;;;;;26.42;68.98;155369.03;10588737;28;20039;-76
2023/08/22 08:30:10;;;;;;;10.05;8.35;;;;;;;26.46;69.97;155378.22;10588811;28;20069;-76
2023/08/22 08:35:11;;;;;;;7.78;6.88;;;;;;;26.79;69.56;155461.78;10588358;28;20496;-77
2023/08/22 08:40:14;;;;;;;7.63;7.13;;;;;;;27.00;68.33;155515.28;10592399;27;20503;-77
2023/08/22 08:45:16;;;;;;;7.95;7.38;;;;;;;27.12;69.79;155547.97;10606025;27;20040;-76
2023/08/22 08:50:19;;;;;;;8.40;7.70;;;;;;;27.06;68.10;155532.28;10609736;27;20039;-77
2023/08/22 08:55:20;;;;;;;7.95;7.40;;;;;;;27.51;66.68;155645.94;10630505;27;20118;-77
2023/08/22 09:00:22;;;;;;;7.47;6.97;;;;;;;27.56;65.75;155660.28;10592702;27;20440;-76
2023/08/22 09:05:25;;;;;;;8.63;6.72;;;;;;;27.27;67.60;155584.53;10586194;28;20048;-76
2023/08/22 09:10:34;;;;;;;7.50;6.80;;;;;;;27.31;68.44;155594.97;10586449;28;20035;-76
2023/08/22 09:15:36;;;;;;;7.88;7.28;;;;;;;27.49;67.20;155641.97;10588321;27;20092;-76
2023/08/22 09:20:45;;;;;;;6.82;6.32;;;;;;;27.39;67.67;155617.19;10606086;27;20432;-76
2023/08/22 09:25:47;;;;;;;7.43;6.93;;;;;;;27.36;68.76;155609.38;10629028;27;20050;-76
2023/08/22 09:30:50;;;;;;;7.95;7.20;;;;;;;27.59;68.80;155666.84;10609383;27;20075;-75
2023/08/22 09:35:56;;;;;;;6.82;6.32;;;;;;;27.97;66.23;155763.50;10610422;27;20130;-76
2023/08/22 09:40:58;;;;;;;7.95;6.28;;;;;;;28.85;63.03;155990.91;10628832;27;20564;-74
2023/08/22 09:46:04;;;;;;;5.63;5.22;;;;;;;29.48;57.42;156151.72;10601496;27;20050;-74
2023/08/22 09:51:09;;;;;;;6.03;5.63;;;;;;;30.39;54.18;156384.59;10617508;27;20088;-75
2023/08/22 09:56:20;;;;;;;5.82;5.35;;;;;;;30.90;53.37;156515.44;10620083;27;20043;-74
2023/08/22 10:01:25;;;;;;;5.97;5.57;;;;;;;31.15;52.45;156580.88;10602028;27;20051;-74
2023/08/22 10:06:33;;;;;;;6.32;4.57;;;;;;;30.79;52.58;156486.69;10603830;27;20096;-76
2023/08/22 10:11:54;;;;;;;6.35;4.53;;;;;;;30.19;53.91;156333.56;10636196;27;20050;-74
2023/08/22 10:17:06;;;;;;;4.00;3.70;;;;;;;30.37;52.85;156380.69;10617174;27;20035;-78
2023/08/22 10:22:14;;;;;;;3.65;3.35;;;;;;;31.44;50.10;156654.25;10618738;27;20043;-76
2023/08/22 10:27:17;;;;;;;3.70;3.40;;;;;;;31.87;47.84;156765.53;10606339;27;20051;-74
2023/08/22 10:32:21;;;;;;;2.92;2.65;;;;;;;31.90;45.52;156773.38;10602138;27;20058;-77
2023/08/22 10:37:27;;;;;;;2.67;2.40;;;;;;;31.97;43.32;156789.13;10627810;27;20027;-76
2023/08/22 10:42:29;;;;;;;3.90;2.20;;;;;;;32.32;42.97;156880.78;10628564;27;20039;-76
2023/08/22 10:47:31;;;;;;;3.72;2.58;;;;;;;31.94;43.40;156782.56;10626633;27;20507;-77
2023/08/22 10:52:34;;;;;;;2.53;2.28;;;;;;;32.22;42.33;156853.25;10609222;27;20142;-77
2023/08/22 10:57:37;;;;;;;2.10;1.92;;;;;;;32.55;42.56;156938.44;10628917;27;20043;-77
2023/08/22 11:02:40;;;;;;;3.47;2.10;;;;;;;32.83;41.32;157011.75;10627171;27;20131;-78
2023/08/22 11:07:46;;;;;;;2.42;2.22;;;;;;;32.22;41.48;156853.25;10627470;27;20049;-77
2023/08/22 11:12:49;;;;;;;4.03;1.90;;;;;;;32.68;42.21;156971.19;10610407;27;20065;-77
2023/08/22 11:17:51;;;;;;;3.75;2.20;;;;;;;32.67;41.50;156968.53;10628371;28;20416;-77
2023/08/22 11:22:53;;;;;;;4.15;1.83;;;;;;;32.05;42.04;156810.03;10609094;28;20043;-76
2023/08/22 11:27:55;;;;;;;2.53;1.50;;;;;;;31.95;42.49;156785.16;10610898;28;20393;-77
2023/08/22 11:32:57;;;;;;;2.25;1.70;;;;;;;32.08;42.07;156819.22;10629469;28;20446;-76
2023/08/22 11:37:59;;;;;;;2.85;1.50;;;;;;;32.46;40.57;156914.88;10609387;28;20051;-77
2023/08/22 11:43:00;;;;;;;2.58;1.58;;;;;;;32.49;40.48;156924.00;10626149;28;20542;-77
2023/08/22 11:48:02;;;;;;;2.03;1.70;;;;;;;32.63;41.13;156960.69;10626190;28;20042;-76
2023/08/22 11:53:12;;;;;;;3.25;1.80;;;;;;;31.96;41.19;156787.78;10626593;28;20400;-76
2023/08/22 11:58:16;;;;;;;3.75;1.90;;;;;;;31.74;43.20;156731.44;10607364;28;20039;-77
2023/08/22 12:03:18;;;;;;;1.60;1.50;;;;;;;31.75;42.06;156734.09;10607635;28;20122;-77
2023/08/22 12:08:21;;;;;;;4.25;1.70;;;;;;;32.21;41.14;156851.94;10625774;28;20473;-77
2023/08/22 12:13:23;;;;;;;3.25;1.77;;;;;;;32.33;41.62;156883.38;10624868;28;20050;-77
2023/08/22 12:18:30;;;;;;;2.08;1.90;;;;;;;31.67;44.71;156713.16;10625247;28;20035;-75
2023/08/22 12:23:32;;;;;;;2.15;1.95;;;;;;;31.49;44.33;156666.03;10595175;27;20097;-77
2023/08/22 12:28:39;;;;;;;3.90;2.00;;;;;;;31.26;46.29;156607.09;10581894;28;20377;-76
2023/08/22 12:33:48;;;;;;;2.53;1.55;;;;;;;30.98;45.69;156535.09;10574868;28;20050;-76
2023/08/22 12:38:50;;;;;;;4.28;1.80;;;;;;;30.83;45.97;156497.16;10572745;28;20130;-76
2023/08/22 12:43:52;;;;;;;4.90;2.03;;;;;;;30.70;45.36;156464.41;10591772;28;20048;-75
2023/08/22 12:49:01;;;;;;;1.77;1.67;;;;;;;30.44;46.34;156397.69;10591350;28;20047;-76
2023/08/22 12:54:06;;;;;;;5.03;2.10;;;;;;;30.48;45.25;156406.84;10605868;27;20035;-76
2023/08/22 12:59:12;;;;;;;3.67;1.85;;;;;;;29.90;47.47;156259.00;10623756;27;20035;-76
2023/08/22 13:04:22;;;;;;;3.83;2.22;;;;;;;30.23;46.93;156342.75;10556104;28;20043;-75
2023/08/22 13:09:29;;;;;;;3.40;2.20;;;;;;;30.03;48.20;156291.72;10590767;28;20055;-75
2023/08/22 13:14:33;;;;;;;2.00;1.80;;;;;;;30.47;46.62;156404.25;10588422;28;20066;-75
2023/08/22 13:19:39;;;;;;;2.25;2.05;;;;;;;30.47;45.47;156405.53;10589253;28;20036;-76
2023/08/22 13:24:43;;;;;;;2.92;2.13;;;;;;;30.04;47.83;156295.63;10599468;27;20039;-76
2023/08/22 13:29:47;;;;;;;2.80;2.00;;;;;;;30.11;46.48;156313.94;10614665;27;20035;-77
2023/08/22 13:34:51;;;;;;;2.10;1.90;;;;;;;30.25;46.64;156348.00;10576044;28;20043;-76
2023/08/22 13:39:54;;;;;;;2.50;2.22;;;;;;;29.82;47.80;156238.06;10589565;28;20036;-75
2023/08/22 13:44:57;;;;;;;3.42;2.10;;;;;;;29.46;50.80;156145.22;10569474;28;20466;-75
2023/08/22 13:49:59;;;;;;;3.15;1.92;;;;;;;29.95;47.45;156270.78;10585760;28;20040;-75
2023/08/22 13:55:00;;;;;;;2.20;2.00;;;;;;;29.80;47.50;156234.19;10567586;28;20043;-75
2023/08/22 14:00:03;;;;;;;4.10;2.08;;;;;;;29.83;48.33;156240.69;10605382;27;20050;-75
2023/08/22 14:05:06;;;;;;;3.33;1.98;;;;;;;29.99;47.43;156281.25;10627636;27;20047;-75
2023/08/22 14:10:09;;;;;;;2.95;2.25;;;;;;;29.75;48.35;156221.09;10627328;27;20031;-76
2023/08/22 14:15:11;;;;;;;2.20;1.90;;;;;;;29.49;48.15;156153.06;10626815;27;20043;-76
2023/08/22 14:20:13;;;;;;;2.70;2.50;;;;;;;29.10;49.68;156053.72;10627569;27;20078;-75
2023/08/22 14:25:14;;;;;;;4.72;3.08;;;;;;;28.77;50.05;155968.69;10600896;27;20048;-75
2023/08/22 14:30:17;;;;;;;2.47;2.28;;;;;;;28.72;50.46;155955.63;10585187;28;20047;-74
2023/08/22 14:35:18;;;;;;;4.43;2.45;;;;;;;28.54;50.80;155911.19;10587287;28;20078;-75
2023/08/22 14:40:21;;;;;;;4.80;3.05;;;;;;;28.64;50.47;155937.34;10585730;28;20455;-75
2023/08/22 14:45:23;;;;;;;2.80;2.60;;;;;;;28.41;50.45;155877.22;10585672;28;20151;-75
2023/08/22 14:50:25;;;;;;;5.07;3.20;;;;;;;28.58;50.38;155921.66;10586738;28;20108;-74
2023/08/22 14:55:27;;;;;;;3.60;2.78;;;;;;;28.52;50.84;155904.69;10585760;28;20074;-74
2023/08/22 15:00:29;;;;;;;5.00;3.22;;;;;;;28.48;50.56;155895.53;10569184;28;20040;-76
2023/08/22 15:05:36;;;;;;;4.13;3.70;;;;;;;28.01;52.93;155773.97;10586055;28;20055;-75
2023/08/22 15:10:38;;;;;;;3.63;3.10;;;;;;;28.13;53.19;155806.63;10557516;28;20058;-75
2023/08/22 15:15:41;;;;;;;3.47;3.17;;;;;;;28.12;52.25;155804.03;10544379;28;20569;-75
2023/08/22 15:20:43;;;;;;;3.22;3.00;;;;;;;28.05;53.17;155785.72;10542874;28;20507;-75
2023/08/22 15:25:50;;;;;;;2.97;2.78;;;;;;;27.87;52.56;155740.00;10545057;28;20056;-75
2023/08/22 15:30:56;;;;;;;4.32;3.92;;;;;;;27.48;53.30;155639.38;10547188;28;20039;-75
2023/08/22 15:36:01;;;;;;;3.38;3.08;;;;;;;27.58;53.65;155665.53;10542867;28;20043;-76
2023/08/22 15:41:05;;;;;;;4.57;4.18;;;;;;;27.57;55.32;155661.56;10539827;28;20105;-76
2023/08/22 15:46:07;;;;;;;4.47;4.13;;;;;;;27.70;55.27;155694.25;10541397;28;20521;-74
2023/08/22 15:51:10;;;;;;;5.50;4.25;;;;;;;27.80;54.80;155720.38;10540562;28;20040;-75
2023/08/22 15:56:12;;;;;;;5.20;4.00;;;;;;;27.42;57.03;155625.03;10540986;28;20374;-74
2023/08/22 16:01:14;;;;;;;4.75;4.43;;;;;;;27.59;57.32;155666.84;10546613;28;20040;-75
2023/08/22 16:06:17;;;;;;;4.45;4.03;;;;;;;27.44;57.74;155627.63;10548754;28;20056;-74
2023/08/22 16:11:19;;;;;;;3.65;3.38;;;;;;;27.57;56.23;155662.88;10547652;28;20040;-75
2023/08/22 16:16:21;;;;;;;5.28;4.50;;;;;;;27.39;56.52;155617.19;10548142;28;20083;-75
2023/08/22 16:21:23;;;;;;;4.63;4.22;;;;;;;27.26;56.74;155583.22;10548850;28;20038;-75
2023/08/22 16:26:28;;;;;;;4.30;3.90;;;;;;;27.09;58.47;155538.84;10546754;28;20050;-75
2023/08/22 16:31:30;;;;;;;5.80;4.70;;;;;;;27.07;57.23;155534.88;10546998;28;20108;-75
2023/08/22 16:36:33;;;;;;;8.50;4.22;;;;;;;27.12;57.55;155546.69;10547704;28;20497;-75
2023/08/22 16:41:35;;;;;;;4.97;4.47;;;;;;;26.95;58.47;155503.53;10546746;28;20036;-75
2023/08/22 16:46:37;;;;;;;5.25;3.95;;;;;;;26.94;59.12;155499.63;10547563;28;20486;-74
2023/08/22 16:51:39;;;;;;;4.13;3.83;;;;;;;26.86;57.83;155481.34;10546306;28;20109;-73
2023/08/22 16:56:40;;;;;;;3.47;3.00;;;;;;;26.72;57.23;155443.50;10546099;28;20036;-74
2023/08/22 17:01:42;;;;;;;4.15;3.80;;;;;;;26.81;58.56;155468.28;10546969;28;20040;-74
2023/08/22 17:06:44;;;;;;;7.68;4.72;;;;;;;26.61;58.92;155417.41;10527933;28;20142;-74
2023/08/22 17:11:46;;;;;;;5.18;4.38;;;;;;;26.46;59.27;155378.22;10526460;28;20052;-74
2023/08/22 17:16:48;;;;;;;5.15;4.75;;;;;;;26.40;59.36;155363.84;10545955;28;20036;-74
2023/08/22 17:21:50;;;;;;;5.13;4.63;;;;;;;26.30;60.49;155337.75;10545591;28;20048;-73
2023/08/22 17:26:52;;;;;;;6.10;5.55;;;;;;;26.30;61.20;155337.75;10545123;28;20067;-73
2023/08/22 17:31:54;;;;;;;5.53;5.03;;;;;;;26.31;61.36;155340.34;10544190;28;20040;-73
2023/08/22 17:36:56;;;;;;;5.03;4.63;;;;;;;26.31;60.79;155340.34;10526244;28;20101;-74
2023/08/22 17:41:57;;;;;;;4.95;4.45;;;;;;;26.11;62.04;155289.44;10543823;28;20059;-74
2023/08/22 17:47:00;;;;;;;5.32;4.88;;;;;;;26.03;61.78;155267.25;10543325;28;20043;-74
2023/08/22 17:52:03;;;;;;;4.72;4.38;;;;;;;26.02;62.46;155264.66;10543335;28;20070;-74
2023/08/22 17:57:06;;;;;;;6.07;4.30;;;;;;;25.74;63.69;155192.88;10545385;28;20040;-74
2023/08/22 18:02:08;;;;;;;6.07;4.93;;;;;;;25.63;64.12;155165.44;10547070;28;20044;-75
2023/08/22 18:07:10;;;;;;;5.32;4.72;;;;;;;25.69;64.24;155179.81;10549231;28;20048;-76
2023/08/22 18:12:12;;;;;;;4.72;4.30;;;;;;;25.51;64.83;155135.47;10552043;28;20470;-75
2023/08/22 18:17:15;;;;;;;5.38;4.88;;;;;;;25.53;64.93;155140.66;10534402;28;20044;-75
2023/08/22 18:22:18;;;;;;;4.43;4.03;;;;;;;25.43;65.49;155114.59;10550215;28;20040;-76
2023/08/22 18:27:21;;;;;;;4.57;4.28;;;;;;;25.42;65.63;155112.00;10558593;28;20047;-76
2023/08/22 18:32:23;;;;;;;5.05;4.55;;;;;;;25.41;66.89;155109.34;10558425;28;20040;-76
2023/08/22 18:37:26;;;;;;;5.20;4.60;;;;;;;25.37;66.16;155100.25;10556532;28;20135;-76
2023/08/22 18:42:28;;;;;;;5.30;4.80;;;;;;;25.19;67.01;155051.97;10535962;28;20055;-75
2023/08/22 18:47:30;;;;;;;4.50;4.10;;;;;;;25.13;67.94;155038.94;10555125;28;20044;-75
2023/08/22 18:52:33;;;;;;;4.70;4.30;;;;;;;25.24;67.04;155065.06;10557717;28;20040;-75
2023/08/22 18:57:36;;;;;;;3.95;3.65;;;;;;;25.09;66.84;155028.50;10559812;28;20059;-75
2023/08/22 19:02:38;;;;;;;4.05;3.75;;;;;;;24.89;68.32;154977.63;10556631;28;20496;-75
2023/08/22 19:07:40;;;;;;;4.80;4.40;;;;;;;24.84;67.73;154963.28;10556339;28;20044;-76
2023/08/22 19:12:43;;;;;;;3.67;3.38;;;;;;;24.62;68.45;154908.53;10559388;28;20036;-76
2023/08/22 19:17:46;;;;;;;4.65;4.22;;;;;;;24.68;67.57;154922.84;10558554;28;20051;-76
2023/08/22 19:22:50;;;;;;;4.88;4.35;;;;;;;24.48;69.05;154872.03;10558161;28;20047;-75
2023/08/22 19:27:56;;;;;;;;;;;;;;;24.39;69.65;154848.53;10543172;28;20074;-75
2023/08/22 19:32:58;;;;;;;4.82;3.95;;;;;;;24.52;68.32;154881.13;10559209;28;19919;-74
2023/08/22 19:38:19;;;;;;;4.38;3.97;;;;;;;24.30;68.87;154825.03;10553512;28;20127;-74
2023/08/22 19:43:23;;;;;;;5.15;4.55;;;;;;;24.29;68.68;154823.72;10553084;28;20051;-75
2023/08/22 19:48:27;;;;;;;5.00;3.70;;;;;;;24.18;68.42;154795.06;10566720;28;20032;-75
2023/08/22 19:53:30;;;;;;;3.60;3.30;;;;;;;24.11;68.36;154776.81;10569503;28;20036;-75
2023/08/22 19:58:36;;;;;;;;;;;;;;;24.20;66.63;154798.97;10569532;28;20060;-76
2023/08/22 20:03:38;;;;;;;3.15;2.33;;;;;;;24.06;66.46;154765.09;10567188;28;19965;-76
2023/08/22 20:08:44;;;;;;;3.30;2.75;;;;;;;23.94;66.17;154733.78;10570573;28;20052;-75
2023/08/22 20:13:48;;;;;;;3.78;1.92;;;;;;;23.77;66.68;154690.78;10569949;28;20077;-75
2023/08/22 20:18:51;;;;;;;3.95;2.08;;;;;;;23.75;65.80;154685.59;10569457;28;20040;-75
2023/08/22 20:23:55;;;;;;;2.45;2.15;;;;;;;23.63;66.26;154655.56;10569750;28;20043;-74
2023/08/22 20:28:58;;;;;;;3.22;2.05;;;;;;;23.59;66.66;154645.13;10571881;28;20059;-75
2023/08/22 20:34:01;;;;;;;1.85;1.67;;;;;;;23.75;65.77;154684.28;10554124;28;20048;-75
2023/08/22 20:39:06;;;;;;;3.08;2.08;;;;;;;23.65;66.17;154660.84;10566025;28;20037;-74
2023/08/22 20:44:10;;;;;;;3.30;1.73;;;;;;;23.68;65.82;154667.34;10543757;28;20036;-75
2023/08/22 20:49:12;;;;;;;2.33;1.77;;;;;;;23.61;65.41;154650.38;10554953;28;20097;-75
2023/08/22 20:54:14;;;;;;;2.15;1.70;;;;;;;23.47;65.61;154613.91;10545633;28;20044;-75
2023/08/22 20:59:15;;;;;;;2.83;1.77;;;;;;;23.40;66.82;154595.66;10545903;28;20073;-74
2023/08/22 21:04:17;;;;;;;2.28;1.80;;;;;;;23.45;66.71;154608.66;10545211;28;20140;-74
2023/08/22 21:09:19;;;;;;;2.15;1.95;;;;;;;23.39;67.12;154593.06;10545211;28;20477;-75
2023/08/22 21:14:21;;;;;;;3.08;1.95;;;;;;;23.28;67.57;154564.38;10545179;28;20051;-75
2023/08/22 21:19:23;;;;;;;2.33;1.45;;;;;;;23.31;67.18;154572.22;10546718;28;20048;-74
2023/08/22 21:24:41;;;;;;;2.40;1.58;;;;;;;23.33;66.32;154577.41;10544746;28;20071;-75
2023/08/22 21:29:44;;;;;;;2.08;1.50;;;;;;;23.19;67.45;154540.94;10544871;28;20525;-75
2023/08/22 21:34:46;;;;;;;2.75;1.77;;;;;;;23.55;67.04;154634.75;10544675;28;20491;-74
2023/08/22 21:39:48;;;;;;;2.65;1.70;;;;;;;23.41;68.33;154599.53;10544512;28;20452;-75
2023/08/22 21:44:50;;;;;;;3.10;1.52;;;;;;;23.34;68.14;154580.03;10544495;28;20046;-75
2023/08/22 21:49:54;;;;;;;1.90;1.60;;;;;;;23.19;69.70;154542.22;10547033;28;20043;-74
2023/08/22 21:54:56;;;;;;;3.30;1.60;;;;;;;23.06;70.72;154509.66;10535994;28;20043;-75
2023/08/22 21:59:58;;;;;;;2.78;1.92;;;;;;;23.19;69.58;154542.22;10565398;28;20464;-75
2023/08/22 22:04:59;;;;;;;2.47;1.60;;;;;;;23.09;69.97;154517.50;10563801;28;20501;-75
2023/08/22 22:10:02;;;;;;;2.38;1.60;;;;;;;22.82;70.73;154448.44;10565865;28;20036;-75
2023/08/22 22:15:04;;;;;;;3.30;1.85;;;;;;;22.88;71.57;154462.75;10561991;28;20039;-75
2023/08/22 22:20:07;;;;;;;2.67;1.90;;;;;;;22.56;72.70;154382.00;10567690;28;20036;-75
2023/08/22 22:25:11;;;;;;;6.03;1.60;;;;;;;22.62;70.62;154396.31;10585555;28;20046;-75
2023/08/22 22:30:13;;;;;;;2.20;1.23;;;;;;;22.64;73.10;154401.56;10566171;28;20039;-76
2023/08/22 22:35:14;;;;;;;2.35;1.52;;;;;;;22.71;72.31;154418.47;10584927;28;20040;-75
2023/08/22 22:40:16;;;;;;;3.75;1.95;;;;;;;22.39;73.72;154339.03;10583162;28;20168;-74
2023/08/22 22:45:18;;;;;;;4.35;1.60;;;;;;;22.29;73.86;154311.72;10583916;28;20043;-75
2023/08/22 22:50:20;;;;;;;2.00;1.45;;;;;;;22.27;72.79;154306.50;10582664;28;20070;-73
2023/08/22 22:55:21;;;;;;;2.35;1.85;;;;;;;22.12;72.24;154270.06;10583266;28;20040;-75
2023/08/22 23:00:24;;;;;;;5.13;1.75;;;;;;;21.99;72.23;154234.88;10583711;28;20040;-75
2023/08/22 23:05:26;;;;;;;2.40;1.60;;;;;;;21.98;72.39;154232.28;10579000;28;20059;-76